Aeroporto :
LOGIN :

Iscrizione | Disclaimer

   EN    FR    IT 

 










Sommario :    VFR   VFR Marginale   IFR   IFR Intensivo   IFR Molto Intensivo
Visibilità : 
Base nubi : 
>= 8 km
>= 3000ft
5 / 8 km
1000 / 3000 ft
1500m / 5 km
500 / 1000 ft
800 / 1500m
200 / 500 ft
< 800m
< 200 ft
Simboli :   Temporali  Nebbia  Neve Forte  Precipitazioni Forti  Vento > 20 kt
SIGMETs :   Varie  Temporali  Ghiacco  Turbolenza  Onda orograficha  Ceneri Vulcaniche






- Altitudine del aeroporto : 265 ft


ETSH - Holzdorf AB

ULTIMO METAR :
  • 232020Z 18004KT 9999 FEW130 BKN150 04/00 Q0999 BLU

METARs OBSOLETI :
  • 231920Z 16003KT 9999 FEW120 BKN150 04/M01 Q0999 BLU
  • 231820Z 16003KT 9999 FEW120 BKN150 06/M01 Q0999 BLU
  • 231720Z 18005KT 9999 FEW120 BKN150 07/M00 Q0999 BLU
  • 231620Z 20005KT 9999 FEW120 BKN140 08/M00 Q0998 BLU
  • 231520Z 20007KT 9999 FEW050 BKN140 08/M00 Q0998 BLU

Previsioni scadute.



MetMap, La meteo Aeronautica in un colpo d'occhio ! - Copyright ORBIFLY Dicembre 2007 - Disclaimer

ORBIFLY MET'MAP TEAM :

Programmazione e sviluppo : Alexandra Zaïnal
Concezione : Baudouin d'Aumeries
Supporto tecnico e logistico : Manuel Goepfert
Aiuto : Marc-Olivier Méhu
Aiuto per la traduzione : Arnaldo La Scala




FONTI E CREDITI :

   NOAA